Time;durP1;ratioP1;P1;durP2;ratioP2;P2;SDS_P1;SDS_P2;PMS_P1;PMS_P2;Temp;Humidity;BMP_temperature;BMP_pressure;BME280_temperature;BME280_humidity;BME280_pressure;Samples;Min_cycle;Max_cycle;Signal;HPM_P1;HPM_P2
2023/06/26 00:01:33;;;;;;;10.67;9.73;;;;;;;16.15;100.00;99377.91;5111061;28;20192;-76
2023/06/26 00:04:00;;;;;;;11.17;10.17;;;;;;;16.10;100.00;99377.06;5110509;28;20260;-77
2023/06/26 00:06:28;;;;;;;10.50;9.53;;;;;;;16.01;100.00;99381.34;5093572;28;20217;-78
2023/06/26 00:08:55;;;;;;;11.13;10.13;;;;;;;15.98;100.00;99384.56;5111139;28;20267;-77
2023/06/26 00:11:22;;;;;;;10.80;9.90;;;;;;;15.97;100.00;99378.34;5093376;28;20192;-77
2023/06/26 00:13:49;;;;;;;11.37;10.37;;;;;;;15.96;100.00;99379.41;5107640;28;20192;-78
2023/06/26 00:16:16;;;;;;;11.37;10.27;;;;;;;15.96;100.00;99384.81;5114861;28;20188;-78
2023/06/26 00:18:42;;;;;;;11.10;10.20;;;;;;;15.96;100.00;99378.63;5114150;28;20231;-78
2023/06/26 00:21:09;;;;;;;10.80;10.00;;;;;;;15.95;100.00;99375.09;5115820;28;20191;-78
2023/06/26 00:23:36;;;;;;;11.40;10.43;;;;;;;15.95;100.00;99375.09;5115309;28;20198;-78
2023/06/26 00:26:06;;;;;;;10.33;9.53;;;;;;;15.99;100.00;99375.41;5115687;28;20191;-78
2023/06/26 00:28:32;;;;;;;10.77;9.87;;;;;;;15.97;100.00;99380.22;5112988;28;20609;-78
2023/06/26 00:30:59;;;;;;;11.47;10.47;;;;;;;15.97;100.00;99385.63;5110887;28;20199;-79
2023/06/26 00:33:28;;;;;;;11.40;10.50;;;;;;;15.92;100.00;99393.69;5089416;28;20211;-77
2023/06/26 00:35:56;;;;;;;11.07;10.17;;;;;;;15.91;100.00;99386.69;5112980;28;20207;-77
2023/06/26 00:38:23;;;;;;;11.53;10.43;;;;;;;15.87;100.00;99391.78;5098339;28;20205;-77
2023/06/26 00:40:49;;;;;;;11.77;10.67;;;;;;;15.83;100.00;99390.66;5082231;28;20594;-77
2023/06/26 00:43:17;;;;;;;10.93;9.90;;;;;;;15.82;100.00;99384.44;5088360;28;20268;-78
2023/06/26 00:45:43;;;;;;;10.90;9.93;;;;;;;15.79;100.00;99390.38;5114962;28;20252;-77
2023/06/26 00:48:13;;;;;;;10.30;9.40;;;;;;;15.76;100.00;99385.50;5114640;28;20218;-78
2023/06/26 00:50:41;;;;;;;10.80;9.90;;;;;;;15.69;100.00;99379.50;5080139;28;20192;-77
2023/06/26 00:53:09;;;;;;;10.13;9.33;;;;;;;15.63;100.00;99377.81;5114706;28;20184;-76
2023/06/26 00:55:36;;;;;;;10.70;9.80;;;;;;;15.61;100.00;99371.06;5096904;28;20195;-77
2023/06/26 00:58:03;;;;;;;11.00;10.10;;;;;;;15.57;100.00;99372.66;5115044;28;20204;-75
2023/06/26 01:00:30;;;;;;;10.20;9.30;;;;;;;15.55;100.00;99370.22;5096592;28;20191;-76
2023/06/26 01:02:58;;;;;;;10.80;9.90;;;;;;;15.52;100.00;99375.31;5095232;28;20225;-76
2023/06/26 01:05:27;;;;;;;10.90;10.00;;;;;;;15.50;100.00;99366.63;5114720;28;20596;-76
2023/06/26 01:07:54;;;;;;;11.20;10.10;;;;;;;15.44;100.00;99371.97;5093817;28;20192;-76
2023/06/26 01:10:22;;;;;;;10.80;9.80;;;;;;;15.42;100.00;99365.22;5114680;28;20589;-76
2023/06/26 01:12:48;;;;;;;10.20;9.20;;;;;;;15.41;100.00;99364.41;5114849;28;20221;-76
2023/06/26 01:15:15;;;;;;;10.33;9.43;;;;;;;15.40;100.00;99364.66;5113257;28;20203;-76
2023/06/26 01:17:44;;;;;;;10.90;9.97;;;;;;;15.35;100.00;99368.13;5114011;28;20199;-76
2023/06/26 01:20:12;;;;;;;10.93;9.93;;;;;;;15.35;100.00;99368.13;5101629;28;20212;-76
2023/06/26 01:23:02;;;;;;;10.67;9.67;;;;;;;15.33;100.00;99364.06;5114260;28;20570;-76
2023/06/26 01:25:38;;;;;;;10.03;9.10;;;;;;;15.31;100.00;99350.81;5093077;28;20202;-78
2023/06/26 01:28:06;;;;;;;10.80;9.77;;;;;;;15.31;100.00;99358.91;5112958;28;20256;-76
2023/06/26 01:30:44;;;;;;;10.53;9.63;;;;;;;15.30;100.00;99357.28;5078663;28;20198;-77
2023/06/26 01:33:12;;;;;;;10.13;9.20;;;;;;;15.26;100.00;99345.38;5094680;28;20191;-76
2023/06/26 01:35:40;;;;;;;10.17;9.27;;;;;;;15.25;100.00;99351.84;5084638;28;20188;-76
2023/06/26 01:38:17;;;;;;;10.13;9.23;;;;;;;15.21;100.00;99349.94;5113953;28;20188;-76
2023/06/26 01:40:44;;;;;;;10.30;9.40;;;;;;;15.17;100.00;99346.91;5113879;28;20183;-77
2023/06/26 01:43:48;;;;;;;10.40;9.50;;;;;;;15.13;100.00;99344.97;5092048;28;20211;-76
2023/06/26 01:46:25;;;;;;;10.30;9.40;;;;;;;15.12;100.00;99348.75;5100255;28;20246;-76
2023/06/26 01:49:01;;;;;;;9.87;9.07;;;;;;;15.13;100.00;99347.66;5083452;28;20231;-76
2023/06/26 01:51:31;;;;;;;9.80;9.00;;;;;;;15.10;100.00;99349.00;5101140;28;20219;-76
2023/06/26 01:53:58;;;;;;;9.87;9.00;;;;;;;15.07;100.00;99341.41;5107988;28;20242;-77
2023/06/26 01:56:26;;;;;;;10.43;9.43;;;;;;;15.03;100.00;99337.59;5098205;28;20270;-76
2023/06/26 01:58:54;;;;;;;10.03;9.07;;;;;;;14.98;100.00;99346.47;5075798;28;20605;-76
2023/06/26 02:01:22;;;;;;;10.10;9.20;;;;;;;14.94;100.00;99342.66;5062752;28;20251;-77
2023/06/26 02:03:49;;;;;;;9.77;8.87;;;;;;;14.91;100.00;99348.56;5089917;28;20248;-75
2023/06/26 02:06:16;;;;;;;10.07;9.17;;;;;;;14.86;100.00;99345.81;5093433;28;20197;-76
2023/06/26 02:08:42;;;;;;;10.27;9.33;;;;;;;14.83;100.00;99340.13;5073291;28;20220;-76
2023/06/26 02:11:09;;;;;;;9.73;8.93;;;;;;;14.78;100.00;99337.38;5103331;28;20195;-76
2023/06/26 02:13:36;;;;;;;10.30;9.40;;;;;;;14.78;100.00;99345.44;5113935;28;20188;-76
2023/06/26 02:16:03;;;;;;;10.00;9.10;;;;;;;14.78;100.00;99340.06;5114169;28;20562;-76
2023/06/26 02:18:29;;;;;;;10.03;9.13;;;;;;;14.77;100.00;99339.25;5114103;28;20196;-76
2023/06/26 02:20:57;;;;;;;9.33;8.53;;;;;;;14.77;100.00;99338.44;5102906;28;20188;-77
2023/06/26 02:34:04;;;;;;;10.10;9.20;;;;;;;14.75;100.00;99341.38;5110873;28;20187;-76
2023/06/26 02:36:32;;;;;;;10.67;9.77;;;;;;;14.75;100.00;99346.75;5087141;28;20253;-76
2023/06/26 02:38:59;;;;;;;11.17;10.13;;;;;;;14.72;100.00;99339.19;5112829;28;20195;-77
2023/06/26 02:41:26;;;;;;;10.63;9.63;;;;;;;14.71;100.00;99345.63;5095168;28;20200;-75
2023/06/26 02:43:53;;;;;;;10.03;9.23;;;;;;;14.69;100.00;99355.88;5095246;28;20192;-76
2023/06/26 02:46:19;;;;;;;10.57;9.47;;;;;;;14.68;100.00;99356.13;5095320;28;20199;-76
2023/06/26 02:48:46;;;;;;;11.17;10.20;;;;;;;14.67;100.00;99349.91;5095109;28;20584;-76
2023/06/26 02:51:13;;;;;;;10.70;9.80;;;;;;;14.64;100.00;99352.31;5113057;28;20190;-77
2023/06/26 02:53:40;;;;;;;10.83;9.90;;;;;;;14.62;100.00;99357.94;5113022;28;20202;-77
2023/06/26 02:56:07;;;;;;;10.37;9.37;;;;;;;14.58;100.00;99356.81;5094941;28;20238;-77
2023/06/26 02:58:34;;;;;;;10.20;9.20;;;;;;;14.60;100.00;99356.56;5091522;28;20265;-77
2023/06/26 03:01:01;;;;;;;10.87;9.90;;;;;;;14.62;100.00;99362.50;5094755;28;20199;-76
2023/06/26 03:03:28;;;;;;;10.40;9.60;;;;;;;14.61;100.00;99361.69;5094380;28;20250;-76
2023/06/26 03:05:56;;;;;;;10.83;9.83;;;;;;;14.64;100.00;99353.13;5093543;28;20283;-76
2023/06/26 03:08:24;;;;;;;10.27;9.37;;;;;;;14.64;100.00;99357.69;5093313;28;20210;-76
2023/06/26 03:10:51;;;;;;;10.00;9.10;;;;;;;14.67;100.00;99359.88;5093332;28;20203;-76
2023/06/26 03:13:18;;;;;;;10.37;9.27;;;;;;;14.69;100.00;99360.47;5110670;28;20193;-76
2023/06/26 03:15:44;;;;;;;10.30;9.40;;;;;;;14.73;100.00;99358.88;5094463;28;20203;-77
2023/06/26 03:18:11;;;;;;;10.70;9.67;;;;;;;14.75;100.00;99360.25;5089859;28;20203;-76
2023/06/26 03:20:38;;;;;;;10.07;9.10;;;;;;;14.79;100.00;99355.97;5091423;28;20195;-76
2023/06/26 03:23:05;;;;;;;10.33;9.27;;;;;;;14.80;100.00;99357.59;5112558;28;20214;-77
2023/06/26 03:25:32;;;;;;;10.00;9.10;;;;;;;14.85;100.00;99364.94;5109354;28;20192;-77
2023/06/26 03:28:28;;;;;;;9.97;9.10;;;;;;;14.87;100.00;99362.81;5105399;28;20207;-78
2023/06/26 03:30:56;;;;;;;9.33;8.53;;;;;;;14.92;100.00;99370.97;5078026;28;20249;-77
2023/06/26 03:33:23;;;;;;;10.37;9.47;;;;;;;14.98;100.00;99369.91;5094231;28;20203;-77
2023/06/26 03:35:50;;;;;;;9.73;8.93;;;;;;;15.03;100.00;99369.97;5110749;28;20194;-78
2023/06/26 03:38:17;;;;;;;10.17;9.27;;;;;;;15.08;100.00;99372.72;5091899;28;20202;-75
2023/06/26 03:40:45;;;;;;;10.17;9.33;;;;;;;15.14;100.00;99370.91;5094545;28;20204;-76
2023/06/26 03:43:12;;;;;;;9.87;8.90;;;;;;;15.18;100.00;99372.81;5112362;28;20191;-76
2023/06/26 03:45:47;;;;;;;10.37;9.33;;;;;;;15.22;100.00;99378.53;5094415;28;20195;-75
2023/06/26 03:48:14;;;;;;;10.20;9.27;;;;;;;15.28;100.00;99380.22;5093467;28;20749;-75
2023/06/26 03:50:41;;;;;;;9.77;8.97;;;;;;;15.35;100.00;99389.72;5106518;28;20215;-75
2023/06/26 03:53:07;;;;;;;10.07;9.17;;;;;;;15.41;100.00;99382.47;5094081;28;20196;-74
2023/06/26 03:55:34;;;;;;;9.20;8.43;;;;;;;15.51;100.00;99381.78;5091002;28;20192;-75
2023/06/26 03:58:03;;;;;;;9.53;8.73;;;;;;;15.59;100.00;99376.72;5112325;28;20213;-74
2023/06/26 04:00:30;;;;;;;9.10;8.20;;;;;;;15.68;100.00;99385.16;5093704;28;20200;-75
2023/06/26 04:02:57;;;;;;;9.80;8.90;;;;;;;15.76;100.00;99380.09;5112018;28;20264;-75
2023/06/26 04:05:24;;;;;;;9.90;9.10;;;;;;;15.85;100.00;99385.84;5093670;28;20290;-75
2023/06/26 04:07:51;;;;;;;10.30;9.40;;;;;;;16.08;100.00;99381.94;5094062;28;20261;-75
2023/06/26 04:10:20;;;;;;;10.17;9.27;;;;;;;16.95;100.00;99382.06;5078573;28;20243;-76
2023/06/26 04:12:48;;;;;;;9.73;8.90;;;;;;;19.12;100.00;99389.06;5084186;28;20195;-76
2023/06/26 04:15:14;;;;;;;9.60;8.57;;;;;;;21.03;100.00;99392.91;5108420;28;20562;-75
2023/06/26 04:17:41;;;;;;;9.10;8.30;;;;;;;22.64;100.00;99392.06;5112053;28;20188;-75
2023/06/26 04:20:08;;;;;;;11.23;9.50;;;;;;;24.01;100.00;99387.00;5106518;28;20202;-76
2023/06/26 04:22:35;;;;;;;9.27;8.37;;;;;;;25.04;100.00;99386.63;5104515;28;20203;-75
2023/06/26 04:25:03;;;;;;;9.17;8.37;;;;;;;25.89;100.00;99379.50;5111462;28;20274;-75
2023/06/26 04:27:30;;;;;;;8.73;8.03;;;;;;;26.55;100.00;99385.44;5088197;28;20196;-75
2023/06/26 04:29:57;;;;;;;8.60;7.80;;;;;;;27.22;93.41;99381.78;5108635;28;20215;-76
2023/06/26 04:32:23;;;;;;;8.40;7.60;;;;;;;27.69;88.44;99385.94;5110399;28;20196;-75
2023/06/26 04:34:50;;;;;;;8.57;7.77;;;;;;;28.22;82.10;99381.53;5109984;28;20590;-77
2023/06/26 04:37:17;;;;;;;8.33;7.60;;;;;;;28.34;79.40;99385.09;5093514;28;20612;-74
2023/06/26 04:39:44;;;;;;;8.52;7.80;;;;;;;28.48;77.91;99381.19;5111548;28;20207;-75
2023/06/26 04:42:12;;;;;;;8.32;7.63;;;;;;;27.35;79.51;99381.53;5112185;28;20578;-75
2023/06/26 04:44:40;;;;;;;8.23;7.47;;;;;;;25.68;84.55;99378.56;5111749;28;20191;-75
2023/06/26 04:47:08;;;;;;;8.82;8.07;;;;;;;24.43;91.17;99380.16;5111471;28;20187;-75
2023/06/26 04:49:34;;;;;;;8.20;7.50;;;;;;;23.49;99.20;99377.66;5108609;28;20260;-75
2023/06/26 04:52:04;;;;;;;8.27;7.57;;;;;;;22.75;100.00;99371.69;5108546;28;20198;-75
2023/06/26 04:54:31;;;;;;;8.38;7.53;;;;;;;22.28;100.00;99381.06;5110775;28;20195;-75
2023/06/26 04:56:59;;;;;;;8.77;7.97;;;;;;;21.83;100.00;99384.59;5110833;28;20195;-76
2023/06/26 04:59:26;;;;;;;8.57;7.85;;;;;;;21.56;100.00;99382.56;5110956;28;20302;-76
2023/06/26 05:01:53;;;;;;;8.60;7.70;;;;;;;21.38;100.00;99381.50;5113751;28;20203;-76
2023/06/26 05:04:20;;;;;;;9.50;8.50;;;;;;;21.34;100.00;99385.13;5115160;28;20326;-76
2023/06/26 05:06:46;;;;;;;9.20;8.27;;;;;;;21.28;100.00;99389.81;5115347;28;20206;-76
2023/06/26 05:09:13;;;;;;;9.07;8.17;;;;;;;21.26;100.00;99385.78;5113874;28;20214;-76
2023/06/26 05:11:40;;;;;;;8.87;8.03;;;;;;;21.28;100.00;99394.47;5102277;28;20204;-76
2023/06/26 05:14:07;;;;;;;8.75;7.90;;;;;;;21.33;100.00;99389.75;5112039;28;20224;-77
2023/06/26 05:16:34;;;;;;;9.03;8.23;;;;;;;21.37;100.00;99392.72;5107608;28;20200;-77
2023/06/26 05:19:01;;;;;;;7.88;7.28;;;;;;;21.39;100.00;99394.03;5104370;28;20189;-76
2023/06/26 05:21:28;;;;;;;8.73;8.00;;;;;;;21.50;100.00;99392.78;5087824;28;20311;-76
2023/06/26 05:23:57;;;;;;;8.45;7.72;;;;;;;21.60;100.00;99391.81;5109055;28;20191;-77
2023/06/26 05:26:24;;;;;;;8.77;8.07;;;;;;;21.71;100.00;99392.41;5108603;28;20260;-77
2023/06/26 05:28:52;;;;;;;7.97;7.28;;;;;;;21.75;100.00;99394.25;5096212;28;20229;-76
2023/06/26 05:31:19;;;;;;;8.98;8.18;;;;;;;21.89;100.00;99397.03;5105343;28;20192;-75
2023/06/26 05:33:46;;;;;;;8.50;7.70;;;;;;;22.02;100.00;99390.84;5083423;28;20628;-76
2023/06/26 05:36:15;;;;;;;8.20;7.50;;;;;;;22.19;100.00;99396.50;5106091;28;20253;-77
2023/06/26 05:38:42;;;;;;;8.23;7.53;;;;;;;22.32;100.00;99389.44;5085167;28;20250;-76
2023/06/26 05:41:09;;;;;;;8.57;7.75;;;;;;;22.48;100.00;99393.50;5108618;28;20260;-76
2023/06/26 05:43:36;;;;;;;8.20;7.47;;;;;;;22.67;100.00;99390.66;5103040;28;20609;-76
2023/06/26 05:46:03;;;;;;;7.75;7.05;;;;;;;22.75;100.00;99396.25;5100050;28;20196;-76
2023/06/26 05:48:29;;;;;;;8.70;7.82;;;;;;;22.84;100.00;99393.59;5094382;28;20184;-75
2023/06/26 05:50:56;;;;;;;8.30;7.57;;;;;;;22.98;100.00;99393.59;5098947;28;20267;-76
2023/06/26 05:53:23;;;;;;;8.95;8.10;;;;;;;23.03;100.00;99390.75;5091255;28;20264;-77
2023/06/26 05:55:50;;;;;;;7.78;7.03;;;;;;;23.08;100.00;99394.19;5103892;28;20229;-76
2023/06/26 05:58:17;;;;;;;7.80;7.13;;;;;;;23.19;100.00;99397.47;5114237;28;20191;-78
2023/06/26 06:00:44;;;;;;;9.90;7.65;;;;;;;23.07;100.00;99392.56;5113920;28;20188;-76
2023/06/26 06:03:11;;;;;;;7.32;6.72;;;;;;;23.09;100.00;99395.81;5107905;28;20779;-76
2023/06/26 06:05:38;;;;;;;8.13;7.43;;;;;;;23.02;100.00;99398.13;5110351;28;20733;-78
2023/06/26 06:08:05;;;;;;;7.93;7.10;;;;;;;23.31;100.00;99397.75;5106819;28;20248;-75
2023/06/26 06:10:31;;;;;;;7.78;6.70;;;;;;;23.38;100.00;99389.09;5090550;28;20210;-78
2023/06/26 06:12:58;;;;;;;7.15;6.45;;;;;;;23.47;100.00;99381.84;5107045;28;20197;-75
2023/06/26 06:15:25;;;;;;;6.45;5.90;;;;;;;23.48;100.00;99389.72;5108060;28;20195;-76
2023/06/26 06:17:53;;;;;;;7.00;6.30;;;;;;;23.31;100.00;99388.75;5088588;28;20626;-75
2023/06/26 06:20:20;;;;;;;6.22;5.72;;;;;;;23.54;100.00;99380.28;5107662;28;20210;-76
2023/06/26 06:22:48;;;;;;;6.43;5.72;;;;;;;23.70;100.00;99386.19;5107001;28;20188;-76
2023/06/26 06:25:15;;;;;;;6.60;5.95;;;;;;;23.66;100.00;99382.44;5094744;28;20533;-76
2023/06/26 06:27:42;;;;;;;5.65;5.15;;;;;;;23.76;100.00;99386.84;5070947;28;20192;-77
2023/06/26 06:30:10;;;;;;;6.40;5.90;;;;;;;23.81;100.00;99383.97;5091252;28;20614;-77
2023/06/26 06:32:36;;;;;;;5.60;5.10;;;;;;;23.50;100.00;99382.03;5112971;28;20244;-77
2023/06/26 06:35:09;;;;;;;5.45;5.00;;;;;;;23.70;100.00;99384.22;5110373;28;20202;-76
2023/06/26 06:37:37;;;;;;;5.97;5.15;;;;;;;23.84;100.00;99386.94;5113667;28;20191;-76
2023/06/26 06:40:09;;;;;;;6.22;5.72;;;;;;;23.54;100.00;99376.72;5113468;28;20187;-75
2023/06/26 06:42:36;;;;;;;5.93;5.43;;;;;;;24.01;100.00;99383.47;5095729;28;20192;-76
2023/06/26 06:45:04;;;;;;;6.05;5.45;;;;;;;24.28;100.00;99380.56;5103278;28;20183;-76
2023/06/26 06:47:32;;;;;;;6.10;5.50;;;;;;;23.81;100.00;99381.25;5113417;28;20196;-75
2023/06/26 06:50:03;;;;;;;5.90;5.40;;;;;;;24.03;100.00;99373.00;5086795;28;20303;-74
2023/06/26 06:52:30;;;;;;;5.53;5.07;;;;;;;24.06;100.00;99380.59;5112503;28;20215;-75
2023/06/26 06:55:05;;;;;;;5.95;5.45;;;;;;;24.21;100.00;99374.75;5105983;28;20188;-76
2023/06/26 06:57:35;;;;;;;5.38;4.97;;;;;;;24.34;100.00;99367.56;5113439;28;20614;-75
2023/06/26 07:00:11;;;;;;;5.05;4.55;;;;;;;24.53;100.00;99379.88;5112770;28;20198;-75
2023/06/26 07:02:39;;;;;;;5.30;4.72;;;;;;;24.76;100.00;99377.84;5104792;28;20217;-75
2023/06/26 07:05:06;;;;;;;4.85;4.47;;;;;;;24.84;100.00;99374.31;5071315;28;20193;-77
2023/06/26 07:07:34;;;;;;;5.28;4.78;;;;;;;24.60;100.00;99376.66;5072189;28;20203;-74
2023/06/26 07:10:08;;;;;;;5.15;4.75;;;;;;;24.42;100.00;99374.97;5069899;28;20228;-75
2023/06/26 07:12:36;;;;;;;6.22;4.70;;;;;;;24.58;100.00;99375.38;5054642;28;20543;-75
2023/06/26 07:15:04;;;;;;;4.80;4.40;;;;;;;24.83;100.00;99372.69;5071790;28;20212;-75
2023/06/26 07:17:32;;;;;;;5.00;4.60;;;;;;;25.07;100.00;99380.47;5070727;28;20579;-75
2023/06/26 07:19:59;;;;;;;5.38;4.80;;;;;;;25.12;100.00;99379.53;5064080;28;20194;-75
2023/06/26 07:22:26;;;;;;;6.18;5.32;;;;;;;24.95;100.00;99380.31;5071995;28;20207;-76
2023/06/26 07:24:53;;;;;;;5.35;4.90;;;;;;;25.42;100.00;99384.88;5071172;28;20275;-76
2023/06/26 07:27:20;;;;;;;5.80;5.32;;;;;;;25.68;100.00;99384.06;5071926;28;20200;-79
2023/06/26 07:29:47;;;;;;;5.45;5.00;;;;;;;25.86;99.85;99380.94;5065729;28;20703;-79
2023/06/26 07:32:14;;;;;;;4.82;4.43;;;;;;;25.61;98.13;99373.59;5066532;28;20202;-78
2023/06/26 07:34:41;;;;;;;5.97;5.28;;;;;;;25.18;99.94;99380.97;5067175;28;20467;-77
2023/06/26 07:37:08;;;;;;;4.75;4.30;;;;;;;24.99;96.08;99375.81;5067116;28;20184;-79
2023/06/26 07:39:34;;;;;;;5.15;4.75;;;;;;;25.04;95.11;99370.19;5063154;28;20729;-79
2023/06/26 07:42:01;;;;;;;6.20;4.43;;;;;;;25.09;92.07;99371.94;5066540;28;20191;-78
2023/06/26 07:44:28;;;;;;;4.47;4.18;;;;;;;25.53;92.88;99374.34;5066948;28;20190;-79
2023/06/26 07:46:55;;;;;;;4.40;3.95;;;;;;;25.58;93.81;99379.72;5054602;28;20266;-77
2023/06/26 07:49:21;;;;;;;4.60;4.30;;;;;;;25.87;92.35;99373.53;5062852;28;20211;-77
2023/06/26 07:51:48;;;;;;;4.85;4.40;;;;;;;25.23;89.63;99380.81;5071400;28;20676;-76
2023/06/26 07:54:15;;;;;;;4.63;4.22;;;;;;;25.36;92.47;99368.88;5071741;28;20191;-75
2023/06/26 07:56:54;;;;;;;5.05;4.68;;;;;;;25.25;96.32;99387.59;5070124;28;20207;-75
2023/06/26 07:59:22;;;;;;;5.63;4.57;;;;;;;25.26;92.89;99386.47;5067215;28;20196;-76
2023/06/26 08:01:50;;;;;;;5.10;4.57;;;;;;;25.54;89.76;99381.50;5062313;28;20239;-75
2023/06/26 08:04:21;;;;;;;5.05;4.45;;;;;;;25.42;89.41;99382.13;5091036;28;20645;-76
2023/06/26 08:06:50;;;;;;;4.55;4.00;;;;;;;25.82;87.33;99382.75;5111893;28;20202;-76
2023/06/26 08:09:18;;;;;;;4.38;3.97;;;;;;;26.20;86.24;99379.25;5105985;28;20552;-77
2023/06/26 08:11:45;;;;;;;6.68;4.82;;;;;;;25.73;88.83;99370.16;5111510;28;20215;-76
2023/06/26 08:14:12;;;;;;;5.28;4.78;;;;;;;26.10;87.93;99374.91;5105729;28;20563;-75
2023/06/26 08:16:43;;;;;;;5.10;4.60;;;;;;;26.19;86.09;99366.66;5111623;28;20245;-76
2023/06/26 08:19:11;;;;;;;5.22;4.72;;;;;;;26.39;85.72;99371.44;5106088;28;20196;-76
2023/06/26 08:21:39;;;;;;;5.30;4.80;;;;;;;26.00;83.84;99369.78;5108835;28;20560;-78
2023/06/26 08:24:06;;;;;;;5.47;4.88;;;;;;;26.12;82.71;99360.88;5108723;28;20218;-75
2023/06/26 08:26:34;;;;;;;5.32;4.88;;;;;;;26.56;82.60;99368.59;5106299;28;20200;-76
2023/06/26 08:29:07;;;;;;;5.40;4.90;;;;;;;26.51;85.34;99363.28;5111811;28;20215;-77
2023/06/26 08:31:38;;;;;;;5.38;4.95;;;;;;;26.52;83.29;99362.16;5095305;28;20226;-77
2023/06/26 08:34:07;;;;;;;5.80;5.18;;;;;;;26.12;83.30;99367.16;5110880;28;20192;-77
2023/06/26 08:36:34;;;;;;;5.32;4.88;;;;;;;26.40;84.96;99366.75;5112550;28;20196;-76
2023/06/26 08:39:02;;;;;;;6.15;5.53;;;;;;;25.85;83.07;99360.13;5115727;28;20680;-76
2023/06/26 08:41:29;;;;;;;5.22;4.70;;;;;;;26.56;83.94;99356.81;5115441;28;20199;-75
2023/06/26 08:43:56;;;;;;;6.30;5.25;;;;;;;26.50;83.19;99369.91;5116086;28;20187;-76
2023/06/26 08:46:22;;;;;;;5.85;5.35;;;;;;;26.53;82.31;99363.78;5115761;28;20203;-75
2023/06/26 08:48:55;;;;;;;5.38;4.88;;;;;;;26.88;82.36;99355.34;5115915;28;20198;-76
2023/06/26 08:51:25;;;;;;;5.60;5.10;;;;;;;26.92;81.46;99350.81;5115466;28;20199;-76
2023/06/26 08:54:01;;;;;;;5.68;5.18;;;;;;;26.56;81.20;99352.13;5115207;28;20573;-78
2023/06/26 08:56:32;;;;;;;5.32;4.88;;;;;;;26.83;81.31;99361.81;5094386;28;20210;-76
2023/06/26 08:58:59;;;;;;;5.68;5.20;;;;;;;27.14;79.25;99355.97;5097271;28;20200;-76
2023/06/26 09:01:26;;;;;;;5.28;4.82;;;;;;;26.99;79.35;99343.63;5113537;28;20196;-76
2023/06/26 09:03:53;;;;;;;6.47;4.95;;;;;;;26.94;80.31;99346.59;5086395;28;20236;-76
2023/06/26 09:06:20;;;;;;;5.55;5.10;;;;;;;26.51;81.57;99349.56;5094641;28;20238;-76
2023/06/26 09:08:47;;;;;;;5.97;5.32;;;;;;;26.80;79.53;99346.00;5094729;28;20203;-75
2023/06/26 09:11:14;;;;;;;5.72;5.22;;;;;;;26.89;82.44;99343.22;5094412;28;20654;-78
2023/06/26 09:13:40;;;;;;;6.38;5.28;;;;;;;27.16;85.58;99343.50;5089586;28;20606;-76
2023/06/26 09:16:08;;;;;;;5.57;5.10;;;;;;;27.16;80.76;99337.19;5094618;28;20192;-76
2023/06/26 09:18:35;;;;;;;5.20;4.65;;;;;;;27.35;78.82;99336.69;5094654;28;20655;-76
2023/06/26 09:21:07;;;;;;;6.15;5.45;;;;;;;26.98;79.42;99328.28;5094756;28;20585;-77
2023/06/26 09:23:34;;;;;;;7.00;5.40;;;;;;;27.08;80.43;99330.63;5094521;28;20200;-78
2023/06/26 09:26:05;;;;;;;5.70;5.20;;;;;;;27.38;78.19;99327.78;5094254;28;20192;-78
2023/06/26 09:28:33;;;;;;;5.75;5.25;;;;;;;27.57;75.65;99323.44;5094251;28;20227;-76
2023/06/26 09:31:04;;;;;;;5.88;5.32;;;;;;;27.74;75.69;99322.44;5093918;28;20215;-76
2023/06/26 09:33:36;;;;;;;8.20;5.20;;;;;;;28.02;78.94;99319.84;5094214;28;20557;-76
2023/06/26 09:36:19;;;;;;;5.65;5.15;;;;;;;27.73;78.14;99323.56;5086526;28;20188;-77
2023/06/26 09:38:45;;;;;;;5.40;4.88;;;;;;;27.45;77.96;99317.84;5090478;28;20200;-76
2023/06/26 09:41:15;;;;;;;6.38;5.00;;;;;;;27.65;77.05;99318.16;5090941;28;20237;-78
2023/06/26 09:43:50;;;;;;;6.32;5.10;;;;;;;28.03;77.45;99315.97;5094370;28;20189;-75
2023/06/26 09:46:26;;;;;;;5.45;4.93;;;;;;;28.26;76.45;99319.09;5093788;28;20274;-76
2023/06/26 09:49:05;;;;;;;5.22;4.78;;;;;;;28.29;72.24;99312.88;5093895;28;20202;-78
2023/06/26 09:51:35;;;;;;;5.35;4.95;;;;;;;28.04;73.13;99317.56;5084007;28;20754;-77
2023/06/26 09:54:04;;;;;;;5.25;4.85;;;;;;;27.59;74.21;99321.13;5092446;28;20201;-78
2023/06/26 09:56:31;;;;;;;6.05;5.00;;;;;;;27.94;73.17;99309.75;5093829;28;20185;-77
2023/06/26 09:59:01;;;;;;;5.28;4.70;;;;;;;28.46;75.79;99313.44;5091164;28;20406;-77
2023/06/26 10:01:28;;;;;;;5.32;4.93;;;;;;;28.27;74.95;99306.94;5092096;28;20196;-78
2023/06/26 10:03:58;;;;;;;5.57;5.07;;;;;;;28.68;72.42;99314.13;5103624;28;20729;-78
2023/06/26 10:06:34;;;;;;;5.60;5.05;;;;;;;28.45;72.87;99300.84;5109737;28;20192;-79
2023/06/26 10:09:01;;;;;;;5.60;4.85;;;;;;;28.91;72.23;99297.91;5093785;28;20202;-78
2023/06/26 10:11:41;;;;;;;5.88;5.30;;;;;;;28.64;72.89;99293.94;5095713;28;20216;-77
2023/06/26 10:14:09;;;;;;;5.10;4.78;;;;;;;28.93;71.09;99287.34;5099997;28;20306;-78
2023/06/26 10:16:45;;;;;;;5.10;4.70;;;;;;;29.37;69.77;99294.56;5113674;28;20222;-79
2023/06/26 10:19:13;;;;;;;5.13;4.72;;;;;;;29.53;68.20;99289.09;5095389;28;20199;-79
2023/06/26 10:21:40;;;;;;;5.63;5.05;;;;;;;29.16;69.07;99285.66;5095505;28;20224;-78
2023/06/26 10:24:08;;;;;;;5.60;5.20;;;;;;;29.25;68.67;99289.06;5113516;28;20199;-77
2023/06/26 10:26:38;;;;;;;4.93;4.53;;;;;;;29.55;69.25;99293.09;5113476;28;20195;-79
2023/06/26 10:29:06;;;;;;;5.43;4.93;;;;;;;29.59;68.07;99282.13;5086955;28;20276;-78
2023/06/26 10:31:33;;;;;;;4.93;4.53;;;;;;;29.62;64.52;99270.41;5095332;28;20257;-78
2023/06/26 10:33:59;;;;;;;4.90;4.50;;;;;;;29.73;65.67;99272.25;5113251;28;20176;-78
2023/06/26 10:36:29;;;;;;;4.97;4.53;;;;;;;29.49;65.84;99271.63;5108669;28;20236;-78
2023/06/26 10:38:58;;;;;;;5.35;4.45;;;;;;;29.80;66.48;99277.19;5113763;28;20195;-79
2023/06/26 10:41:25;;;;;;;4.85;4.45;;;;;;;29.82;63.53;99265.75;5113164;28;20211;-78
2023/06/26 10:44:01;;;;;;;5.05;4.63;;;;;;;29.43;66.34;99273.03;5113409;28;20200;-78
2023/06/26 10:46:33;;;;;;;5.28;4.82;;;;;;;29.76;65.10;99270.78;5104818;28;20746;-79
2023/06/26 10:49:00;;;;;;;5.30;4.90;;;;;;;29.74;63.18;99260.06;5104630;28;20198;-78
2023/06/26 10:51:27;;;;;;;4.85;4.45;;;;;;;29.83;62.66;99259.09;5111381;28;20635;-78
2023/06/26 10:53:56;;;;;;;4.65;4.30;;;;;;;29.92;62.23;99259.75;5113112;28;20203;-79
2023/06/26 10:56:57;;;;;;;4.93;4.53;;;;;;;29.81;62.88;99262.22;5113252;28;20187;-78
2023/06/26 10:59:28;;;;;;;4.35;4.05;;;;;;;29.71;62.84;99259.97;5058770;28;20238;-78
2023/06/26 11:01:56;;;;;;;5.35;4.88;;;;;;;29.81;65.00;99261.41;5112689;28;20196;-79
2023/06/26 11:04:53;;;;;;;4.63;4.30;;;;;;;29.34;64.64;99253.06;5107172;28;20239;-78
2023/06/26 11:07:24;;;;;;;4.97;4.57;;;;;;;29.66;62.93;99255.53;5099962;28;20211;-78
2023/06/26 11:09:57;;;;;;;5.10;4.70;;;;;;;29.81;62.47;99264.19;5106202;28;20192;-78
2023/06/26 11:12:48;;;;;;;4.47;4.18;;;;;;;30.12;62.69;99259.47;5112712;28;20693;-78
2023/06/26 11:15:16;;;;;;;4.93;4.43;;;;;;;30.34;61.38;99241.44;5094950;28;20670;-78
2023/06/26 11:17:43;;;;;;;4.93;4.38;;;;;;;30.24;60.73;99253.03;5094650;28;20191;-77
2023/06/26 11:20:15;;;;;;;4.63;4.32;;;;;;;30.35;61.19;99253.28;5111849;28;20223;-78
2023/06/26 11:22:43;;;;;;;4.90;4.40;;;;;;;30.12;59.82;99250.38;5111764;28;20187;-79
2023/06/26 11:25:10;;;;;;;4.32;3.92;;;;;;;30.10;58.93;99250.72;5110884;28;20227;-79
2023/06/26 11:27:38;;;;;;;4.35;4.05;;;;;;;30.13;58.76;99246.47;5112530;28;20188;-79
2023/06/26 11:30:06;;;;;;;4.68;4.18;;;;;;;30.05;58.42;99248.25;5109552;28;20223;-78
2023/06/26 11:32:33;;;;;;;4.78;4.47;;;;;;;30.17;57.94;99239.06;5112243;28;20219;-79
2023/06/26 11:34:59;;;;;;;4.72;4.30;;;;;;;30.59;58.87;99233.72;5106915;28;20219;-79
2023/06/26 11:37:26;;;;;;;4.82;4.28;;;;;;;30.39;59.37;99240.34;5093860;28;20540;-79
2023/06/26 11:39:53;;;;;;;4.18;3.85;;;;;;;31.06;58.24;99238.28;5109326;28;20244;-79
2023/06/26 11:42:20;;;;;;;4.90;3.95;;;;;;;31.10;57.61;99239.97;5112255;28;20633;-79
2023/06/26 11:44:47;;;;;;;4.47;4.05;;;;;;;30.70;58.82;99234.78;5105980;28;20196;-78